Time;durP1;ratioP1;P1;durP2;ratioP2;P2;SDS_P1;SDS_P2;PMS_P1;PMS_P2;Temp;Humidity;BMP_temperature;BMP_pressure;BME280_temperature;BME280_humidity;BME280_pressure;Samples;Min_cycle;Max_cycle;Signal;HPM_P1;HPM_P2
2023/05/15 00:00:05;;;;;;;22.52;18.55;;;16.40;99.90;;;;;;5032823;28;20034;-74
2023/05/15 00:02:33;;;;;;;23.38;18.77;;;16.30;99.90;;;;;;5033329;28;20406;-75
2023/05/15 00:04:59;;;;;;;26.85;20.13;;;16.00;99.90;;;;;;5033759;28;20041;-75
2023/05/15 00:07:25;;;;;;;23.17;19.48;;;16.00;99.90;;;;;;5033683;28;20029;-75
2023/05/15 00:09:51;;;;;;;23.73;19.75;;;16.00;99.90;;;;;;5015253;28;20504;-75
2023/05/15 00:12:17;;;;;;;24.52;19.77;;;16.10;99.90;;;;;;5034322;28;20040;-75
2023/05/15 00:14:43;;;;;;;23.52;20.27;;;16.10;99.90;;;;;;5034404;28;20478;-75
2023/05/15 00:17:11;;;;;;;23.65;19.75;;;16.10;99.90;;;;;;5033281;28;20045;-75
2023/05/15 00:19:37;;;;;;;25.52;20.33;;;16.10;99.90;;;;;;5033549;28;20034;-75
2023/05/15 00:22:03;;;;;;;24.67;19.30;;;16.10;99.90;;;;;;5016424;28;20048;-74
2023/05/15 00:24:29;;;;;;;24.67;19.70;;;16.20;99.90;;;;;;4997287;28;20065;-74
2023/05/15 00:26:55;;;;;;;24.45;19.85;;;16.20;99.90;;;;;;5014244;28;20026;-74
2023/05/15 00:29:22;;;;;;;25.77;19.42;;;16.30;99.90;;;;;;5006613;28;20029;-74
2023/05/15 00:31:48;;;;;;;23.17;19.45;;;16.40;99.90;;;;;;5015782;28;20045;-74
2023/05/15 00:34:14;;;;;;;26.00;20.20;;;16.50;99.90;;;;;;5033402;28;20381;-74
2023/05/15 00:36:41;;;;;;;27.98;20.38;;;16.50;99.90;;;;;;5015715;28;20034;-74
2023/05/15 00:39:07;;;;;;;26.65;21.20;;;16.30;99.90;;;;;;5032184;28;20386;-74
2023/05/15 00:41:33;;;;;;;26.60;20.58;;;16.30;99.90;;;;;;5015827;28;20034;-74
2023/05/15 00:43:59;;;;;;;26.13;20.83;;;16.10;99.90;;;;;;4999971;28;20397;-74
2023/05/15 00:46:26;;;;;;;25.90;20.52;;;16.00;99.90;;;;;;4998016;28;20044;-74
2023/05/15 00:48:53;;;;;;;24.92;20.20;;;16.00;99.90;;;;;;5014739;28;20028;-74
2023/05/15 00:51:19;;;;;;;24.35;20.02;;;15.90;99.90;;;;;;5032862;28;20022;-74
2023/05/15 00:53:45;;;;;;;27.27;20.35;;;15.70;99.90;;;;;;5014936;28;20494;-74
2023/05/15 00:56:11;;;;;;;28.92;20.85;;;15.40;99.90;;;;;;5033346;28;20022;-75
2023/05/15 00:58:37;;;;;;;30.48;21.48;;;15.30;99.90;;;;;;5031930;28;20037;-74
2023/05/15 01:01:04;;;;;;;27.23;20.63;;;15.30;99.90;;;;;;5014346;28;20037;-74
2023/05/15 01:03:30;;;;;;;25.42;20.15;;;15.40;99.90;;;;;;5016132;28;20033;-74
2023/05/15 01:05:56;;;;;;;27.17;21.23;;;15.50;99.90;;;;;;4998099;28;20021;-74
2023/05/15 01:08:26;;;;;;;29.67;20.85;;;15.60;99.90;;;;;;5031741;28;20030;-74
2023/05/15 01:10:52;;;;;;;28.63;20.45;;;15.70;99.90;;;;;;5014704;28;20033;-74
2023/05/15 01:13:21;;;;;;;29.08;21.88;;;15.80;99.90;;;;;;5033424;28;20033;-74
2023/05/15 01:15:48;;;;;;;31.77;22.30;;;15.70;99.90;;;;;;5032462;28;20029;-74
2023/05/15 01:18:14;;;;;;;30.33;22.02;;;15.70;99.90;;;;;;5033107;28;20033;-74
2023/05/15 01:21:05;;;;;;;30.88;21.52;;;15.80;99.90;;;;;;5014681;28;20030;-74
2023/05/15 01:23:53;;;;;;;32.50;23.02;;;15.80;99.90;;;;;;5015855;28;20046;-73
2023/05/15 01:26:49;;;;;;;32.55;22.88;;;15.70;99.90;;;;;;5031436;28;20029;-74
2023/05/15 01:29:21;;;;;;;36.80;24.77;;;15.70;99.90;;;;;;5000032;28;20037;-73
2023/05/15 01:31:50;;;;;;;38.17;25.30;;;15.60;99.90;;;;;;5032220;28;20096;-74
2023/05/15 01:34:17;;;;;;;38.78;26.48;;;15.50;99.90;;;;;;4999255;28;20032;-74
2023/05/15 01:36:55;;;;;;;40.33;27.30;;;15.50;99.90;;;;;;4998826;28;20040;-74
2023/05/15 01:39:22;;;;;;;41.58;27.23;;;15.50;99.90;;;;;;5014553;28;20490;-74
2023/05/15 01:41:55;;;;;;;43.13;26.83;;;15.30;99.90;;;;;;5027358;28;20175;-73
2023/05/15 01:44:28;;;;;;;44.10;27.67;;;15.10;99.90;;;;;;5013959;28;20057;-74
2023/05/15 01:46:56;;;;;;;38.95;27.65;;;15.10;99.90;;;;;;5013331;28;20034;-74
2023/05/15 01:49:25;;;;;;;45.10;26.58;;;14.90;99.90;;;;;;4999052;28;20032;-74
2023/05/15 01:51:58;;;;;;;41.50;26.10;;;14.90;99.90;;;;;;4984231;28;20033;-74
2023/05/15 01:54:24;;;;;;;42.97;26.60;;;14.80;99.90;;;;;;4996915;28;20026;-74
2023/05/15 01:56:51;;;;;;;41.63;25.75;;;14.50;99.90;;;;;;5008306;28;20470;-74
2023/05/15 01:59:17;;;;;;;44.88;26.92;;;14.30;99.90;;;;;;5014447;28;20077;-74
2023/05/15 02:01:43;;;;;;;42.97;25.98;;;14.30;99.90;;;;;;5011457;28;20033;-74
2023/05/15 02:04:09;;;;;;;43.47;27.70;;;14.00;99.90;;;;;;4986840;28;20060;-74
2023/05/15 02:06:35;;;;;;;45.70;27.30;;;14.00;99.90;;;;;;5003399;28;20033;-74
2023/05/15 02:09:02;;;;;;;43.17;27.50;;;14.10;99.90;;;;;;5007422;28;20041;-74
2023/05/15 02:11:28;;;;;;;44.05;28.45;;;14.10;99.90;;;;;;5005423;28;20048;-74
2023/05/15 02:13:55;;;;;;;45.00;27.70;;;14.20;99.90;;;;;;5022855;28;20041;-74
2023/05/15 02:16:21;;;;;;;48.88;30.02;;;14.20;99.90;;;;;;5012196;28;20033;-74
2023/05/15 02:18:47;;;;;;;47.97;29.48;;;14.40;99.90;;;;;;5012263;28;20099;-74
2023/05/15 02:21:14;;;;;;;42.63;28.60;;;14.30;99.90;;;;;;5011887;28;20040;-74
2023/05/15 02:23:40;;;;;;;48.40;29.73;;;14.20;99.90;;;;;;4986039;28;20050;-74
2023/05/15 02:26:27;;;;;;;48.20;29.75;;;14.10;99.90;;;;;;5010268;28;20386;-74
2023/05/15 02:29:20;;;;;;;52.50;30.15;;;14.10;99.90;;;;;;5011182;28;20033;-74
2023/05/15 02:31:57;;;;;;;49.38;29.15;;;14.10;99.90;;;;;;5010065;28;20037;-74
2023/05/15 02:35:01;;;;;;;47.38;30.45;;;14.10;99.90;;;;;;5012899;28;20049;-74
2023/05/15 02:37:29;;;;;;;46.85;27.65;;;14.10;99.90;;;;;;4962567;28;20047;-74
2023/05/15 02:39:58;;;;;;;43.88;27.65;;;13.90;99.90;;;;;;4969248;28;20046;-74
2023/05/15 02:42:26;;;;;;;46.58;28.45;;;13.80;99.90;;;;;;4935311;29;20090;-74
2023/05/15 02:44:53;;;;;;;41.25;27.20;;;13.80;99.90;;;;;;4934882;29;20059;-74
2023/05/15 02:47:20;;;;;;;46.80;28.35;;;13.60;99.90;;;;;;4934813;28;20051;-74
2023/05/15 02:49:46;;;;;;;44.55;27.20;;;13.60;99.90;;;;;;4935045;29;20072;-74
2023/05/15 02:52:12;;;;;;;47.80;27.83;;;13.50;99.90;;;;;;4935020;29;20114;-74
2023/05/15 02:54:38;;;;;;;46.90;29.33;;;13.40;99.90;;;;;;4919540;29;20055;-74
2023/05/15 02:57:06;;;;;;;43.67;28.73;;;13.50;99.90;;;;;;4955067;28;20066;-74
2023/05/15 02:59:33;;;;;;;49.10;29.25;;;13.50;99.90;;;;;;4949931;28;20039;-74
2023/05/15 03:01:59;;;;;;;46.90;29.85;;;13.40;99.90;;;;;;4932181;28;20452;-74
2023/05/15 03:04:25;;;;;;;49.78;29.90;;;13.30;99.90;;;;;;4918943;29;20048;-74
2023/05/15 03:06:51;;;;;;;53.17;31.77;;;13.40;99.90;;;;;;4950306;29;20039;-74
2023/05/15 03:09:17;;;;;;;52.33;31.85;;;13.60;99.90;;;;;;4944609;29;20039;-74
2023/05/15 03:11:44;;;;;;;53.15;32.90;;;13.70;99.90;;;;;;4950230;29;20039;-75
2023/05/15 03:14:10;;;;;;;52.40;31.52;;;13.70;99.90;;;;;;4987309;28;20048;-74
2023/05/15 03:16:37;;;;;;;54.83;32.55;;;13.70;99.90;;;;;;5011233;28;20029;-74
2023/05/15 03:19:04;;;;;;;58.28;31.27;;;13.70;99.90;;;;;;5015152;28;20021;-74
2023/05/15 03:21:30;;;;;;;51.97;32.65;;;13.50;99.90;;;;;;5011733;28;20032;-73
2023/05/15 03:23:56;;;;;;;51.70;31.63;;;13.50;99.90;;;;;;5035364;28;20044;-74
2023/05/15 03:26:23;;;;;;;52.40;31.10;;;13.40;99.90;;;;;;5017346;28;20030;-74
2023/05/15 03:28:49;;;;;;;53.75;30.88;;;13.50;99.90;;;;;;5035362;28;20037;-74
2023/05/15 03:31:15;;;;;;;48.72;29.95;;;13.60;99.90;;;;;;5032407;28;20029;-73
2023/05/15 03:33:42;;;;;;;49.33;30.38;;;13.70;99.90;;;;;;5034887;28;20030;-74
2023/05/15 03:36:08;;;;;;;43.63;28.25;;;13.80;99.90;;;;;;5013596;28;20048;-75
2023/05/15 03:38:34;;;;;;;40.33;26.10;;;13.80;99.90;;;;;;5035059;28;20026;-74
2023/05/15 03:41:00;;;;;;;35.53;23.33;;;13.70;99.90;;;;;;5033691;28;20029;-74
2023/05/15 03:43:26;;;;;;;34.92;23.45;;;13.60;99.90;;;;;;5032667;28;20474;-74
2023/05/15 03:45:52;;;;;;;31.85;22.65;;;13.40;99.90;;;;;;5032909;28;20052;-74
2023/05/15 03:48:18;;;;;;;34.88;23.20;;;13.50;99.90;;;;;;5034276;28;20046;-75
2023/05/15 03:50:44;;;;;;;35.92;22.73;;;13.60;99.90;;;;;;5029624;28;20478;-75
2023/05/15 03:53:10;;;;;;;32.65;22.05;;;13.70;99.90;;;;;;5015267;28;20033;-74
2023/05/15 03:55:37;;;;;;;33.58;22.85;;;13.70;99.90;;;;;;5016102;28;20758;-74
2023/05/15 03:58:03;;;;;;;33.83;23.63;;;13.80;99.90;;;;;;5015456;28;20466;-75
2023/05/15 04:00:29;;;;;;;29.35;22.15;;;13.80;99.90;;;;;;5015280;28;20045;-74
2023/05/15 04:02:55;;;;;;;28.38;21.80;;;13.70;99.90;;;;;;5016137;28;20025;-74
2023/05/15 04:05:21;;;;;;;30.02;22.88;;;13.60;99.90;;;;;;5015452;28;20045;-74
2023/05/15 04:07:47;;;;;;;29.05;21.42;;;13.70;99.90;;;;;;5015011;28;20033;-75
2023/05/15 04:10:13;;;;;;;28.73;21.15;;;13.50;99.90;;;;;;5000527;28;20033;-74
2023/05/15 04:12:39;;;;;;;30.48;21.77;;;13.40;99.90;;;;;;5033800;28;20032;-75
2023/05/15 04:15:19;;;;;;;27.30;21.05;;;13.50;99.90;;;;;;5032810;28;20025;-75
2023/05/15 04:17:45;;;;;;;29.42;20.63;;;13.60;99.90;;;;;;5016303;28;20046;-74
2023/05/15 04:20:13;;;;;;;29.67;20.98;;;13.70;99.90;;;;;;5033119;28;20018;-74
2023/05/15 04:22:39;;;;;;;31.48;21.90;;;13.50;99.90;;;;;;5031766;28;20043;-75
2023/05/15 04:25:06;;;;;;;29.02;21.70;;;13.40;99.90;;;;;;5034165;28;20037;-75
2023/05/15 04:27:32;;;;;;;28.13;21.23;;;13.30;99.90;;;;;;5032045;28;20021;-76
2023/05/15 04:30:00;;;;;;;28.27;21.42;;;13.40;99.90;;;;;;5033098;28;20040;-74
2023/05/15 04:32:26;;;;;;;27.17;19.55;;;13.40;99.90;;;;;;5015627;28;20045;-74
2023/05/15 04:34:52;;;;;;;25.95;19.98;;;13.40;99.90;;;;;;5033456;28;20030;-74
2023/05/15 04:37:18;;;;;;;25.48;19.17;;;13.30;99.90;;;;;;5016137;28;20040;-75
2023/05/15 04:39:44;;;;;;;27.77;19.98;;;13.10;99.90;;;;;;5032952;28;20494;-74
2023/05/15 04:42:11;;;;;;;24.33;18.98;;;13.10;99.90;;;;;;5032914;28;20045;-75
2023/05/15 04:44:37;;;;;;;24.50;18.73;;;13.10;99.90;;;;;;5032951;28;20044;-74
2023/05/15 04:47:03;;;;;;;24.63;18.05;;;13.10;99.90;;;;;;5032357;28;20038;-73
2023/05/15 04:49:29;;;;;;;23.17;18.15;;;13.10;99.90;;;;;;5033015;28;20470;-74
2023/05/15 04:51:55;;;;;;;23.75;18.63;;;13.10;99.90;;;;;;5033580;28;20037;-74
2023/05/15 04:54:21;;;;;;;22.23;18.10;;;13.10;99.90;;;;;;5033714;28;20462;-73
2023/05/15 04:56:47;;;;;;;24.85;18.00;;;13.10;99.90;;;;;;5033399;28;20041;-74
2023/05/15 04:59:14;;;;;;;22.00;16.73;;;13.20;99.90;;;;;;5031924;28;20489;-74
2023/05/15 05:01:40;;;;;;;21.60;17.30;;;13.10;99.90;;;;;;5032278;28;20033;-74
2023/05/15 05:04:07;;;;;;;22.95;17.23;;;13.10;99.90;;;;;;5033428;28;20038;-74
2023/05/15 05:06:33;;;;;;;24.15;15.30;;;13.10;99.90;;;;;;5032746;28;20033;-74
2023/05/15 05:08:59;;;;;;;20.35;15.30;;;13.10;99.90;;;;;;5030814;28;20038;-74
2023/05/15 05:11:25;;;;;;;19.67;15.60;;;13.10;99.90;;;;;;5033019;28;20026;-74
2023/05/15 05:13:51;;;;;;;22.38;16.05;;;13.10;99.90;;;;;;5031727;28;20412;-74
2023/05/15 05:16:17;;;;;;;20.55;15.93;;;13.20;99.90;;;;;;5014966;28;20037;-75
2023/05/15 05:18:43;;;;;;;18.42;13.60;;;13.20;99.90;;;;;;5014813;28;20032;-74
2023/05/15 05:21:09;;;;;;;20.15;15.45;;;13.20;99.90;;;;;;5033014;28;20029;-74
2023/05/15 05:23:35;;;;;;;20.48;15.77;;;13.10;99.90;;;;;;5015295;28;20030;-74
2023/05/15 05:26:01;;;;;;;20.58;15.68;;;13.30;99.90;;;;;;5032286;28;20493;-74
2023/05/15 05:28:28;;;;;;;20.52;16.13;;;13.30;99.90;;;;;;5013490;28;20497;-74
2023/05/15 05:30:54;;;;;;;18.98;15.77;;;13.50;99.90;;;;;;5032240;28;20033;-74
2023/05/15 05:33:20;;;;;;;21.23;15.48;;;13.60;99.90;;;;;;5014237;28;20430;-74
2023/05/15 05:35:46;;;;;;;18.08;14.88;;;13.70;99.90;;;;;;5032538;28;20474;-74
2023/05/15 05:38:12;;;;;;;18.13;14.90;;;13.80;99.90;;;;;;5029267;28;20036;-74
2023/05/15 05:40:38;;;;;;;16.30;14.32;;;13.90;99.90;;;;;;5031287;28;20029;-74
2023/05/15 05:43:05;;;;;;;20.17;15.48;;;14.10;99.90;;;;;;5031529;28;20032;-75
2023/05/15 05:45:31;;;;;;;17.15;14.98;;;14.30;99.90;;;;;;5016373;28;20050;-74
2023/05/15 05:47:57;;;;;;;17.85;14.80;;;14.40;99.90;;;;;;5031334;28;20336;-75
2023/05/15 05:50:23;;;;;;;16.77;14.00;;;14.50;99.90;;;;;;5031147;28;20378;-75
2023/05/15 05:52:49;;;;;;;18.20;14.10;;;14.60;99.90;;;;;;5015033;28;20442;-75
2023/05/15 05:55:16;;;;;;;16.67;14.75;;;14.70;99.90;;;;;;5032266;28;20037;-74
2023/05/15 05:57:42;;;;;;;19.10;14.43;;;14.70;99.90;;;;;;5014127;28;20037;-75
2023/05/15 06:00:09;;;;;;;16.67;14.73;;;14.80;99.90;;;;;;5011899;28;20038;-75
2023/05/15 06:02:36;;;;;;;15.27;13.40;;;14.90;99.90;;;;;;5012836;28;20022;-74
2023/05/15 06:05:03;;;;;;;15.27;13.48;;;14.90;99.90;;;;;;4992814;28;20136;-75
2023/05/15 06:07:29;;;;;;;16.67;13.80;;;14.90;99.90;;;;;;4995938;28;20371;-76
2023/05/15 06:09:55;;;;;;;17.38;13.98;;;15.00;99.90;;;;;;5010617;28;20037;-75
2023/05/15 06:12:21;;;;;;;24.77;14.57;;;15.10;99.90;;;;;;5028758;28;20036;-74
2023/05/15 06:14:48;;;;;;;18.20;14.65;;;15.20;99.90;;;;;;5020859;28;20030;-74
2023/05/15 06:17:14;;;;;;;18.75;14.50;;;15.10;99.90;;;;;;5012042;28;20026;-75
2023/05/15 06:19:40;;;;;;;20.30;15.07;;;15.10;99.90;;;;;;5015336;28;20041;-74
2023/05/15 06:22:06;;;;;;;19.60;14.95;;;15.20;99.90;;;;;;5013919;28;20367;-74
2023/05/15 06:24:32;;;;;;;17.35;14.52;;;15.20;99.90;;;;;;5029733;28;20044;-74
2023/05/15 06:26:58;;;;;;;18.15;14.93;;;15.20;99.90;;;;;;5011403;28;20053;-74
2023/05/15 06:29:25;;;;;;;20.48;16.60;;;15.30;99.90;;;;;;5011157;28;20033;-74
2023/05/15 06:31:51;;;;;;;19.63;15.82;;;15.40;99.90;;;;;;5024967;28;20025;-75
2023/05/15 06:34:17;;;;;;;17.80;14.63;;;15.50;99.90;;;;;;5014338;28;20474;-74
2023/05/15 06:36:43;;;;;;;18.70;15.45;;;15.50;99.90;;;;;;5021850;28;20040;-74
2023/05/15 06:39:10;;;;;;;19.15;15.57;;;15.60;99.90;;;;;;5013982;28;20393;-75
2023/05/15 06:41:37;;;;;;;20.15;16.42;;;15.70;99.90;;;;;;5024210;28;20090;-73
2023/05/15 06:44:03;;;;;;;26.90;16.50;;;15.70;99.90;;;;;;5009411;28;20504;-73
2023/05/15 06:46:29;;;;;;;22.02;16.40;;;15.70;99.90;;;;;;5031080;28;20065;-73
2023/05/15 06:48:56;;;;;;;21.73;16.67;;;15.70;99.90;;;;;;5031742;28;20037;-74
2023/05/15 06:51:22;;;;;;;21.52;15.65;;;15.80;99.90;;;;;;5026462;28;20040;-74
2023/05/15 06:53:48;;;;;;;19.58;16.02;;;15.90;99.90;;;;;;5031169;28;20034;-74
2023/05/15 06:56:14;;;;;;;21.42;17.88;;;15.90;99.90;;;;;;5009581;28;20060;-73
2023/05/15 06:58:40;;;;;;;19.33;16.38;;;16.00;99.90;;;;;;5034920;28;20025;-74
2023/05/15 07:01:08;;;;;;;17.90;16.00;;;16.20;99.90;;;;;;5034262;28;20398;-73
2023/05/15 07:03:38;;;;;;;18.33;16.27;;;16.30;99.90;;;;;;5004473;28;20044;-75
2023/05/15 07:06:05;;;;;;;21.77;17.02;;;16.50;99.90;;;;;;5015952;28;20029;-75
2023/05/15 07:08:31;;;;;;;20.60;17.35;;;16.70;99.90;;;;;;5030514;28;20588;-75
2023/05/15 07:10:57;;;;;;;20.70;17.40;;;16.80;99.90;;;;;;5034400;28;20022;-75
2023/05/15 07:13:23;;;;;;;21.95;19.33;;;17.00;99.90;;;;;;5034252;28;20466;-75
2023/05/15 07:15:49;;;;;;;26.25;19.02;;;17.30;99.90;;;;;;5032379;28;20039;-75
2023/05/15 07:18:17;;;;;;;22.75;19.38;;;17.20;99.90;;;;;;5035429;28;20037;-75
2023/05/15 07:20:43;;;;;;;20.17;17.48;;;17.40;99.90;;;;;;5034920;28;20022;-75
2023/05/15 07:23:10;;;;;;;21.27;17.92;;;17.70;99.90;;;;;;5015610;28;20398;-75
2023/05/15 07:25:36;;;;;;;17.92;16.02;;;18.00;99.90;;;;;;5027680;28;20041;-75
2023/05/15 07:28:02;;;;;;;18.13;16.25;;;18.10;99.90;;;;;;5034277;28;20034;-75
2023/05/15 07:30:28;;;;;;;20.33;16.77;;;18.20;99.90;;;;;;5032356;28;20162;-75
2023/05/15 07:32:54;;;;;;;17.30;15.25;;;18.10;99.90;;;;;;5016264;28;20060;-75
2023/05/15 07:35:20;;;;;;;17.25;15.30;;;18.20;99.90;;;;;;5033523;28;20026;-74
2023/05/15 07:37:46;;;;;;;15.55;13.95;;;18.20;99.90;;;;;;5029099;28;20037;-74
2023/05/15 07:40:14;;;;;;;15.20;13.65;;;18.00;99.90;;;;;;5014566;28;20029;-74
2023/05/15 07:42:44;;;;;;;15.00;13.30;;;17.80;99.90;;;;;;5017299;28;20026;-74
2023/05/15 07:45:10;;;;;;;13.55;12.13;;;17.60;99.90;;;;;;4997068;28;20085;-72
2023/05/15 07:47:36;;;;;;;13.60;12.10;;;17.60;99.90;;;;;;5029062;28;20048;-71
2023/05/15 07:50:03;;;;;;;16.92;12.73;;;17.60;99.90;;;;;;5034308;28;20421;-72
2023/05/15 07:52:29;;;;;;;12.57;11.38;;;17.60;99.90;;;;;;5012953;28;20069;-72
2023/05/15 07:54:55;;;;;;;13.82;12.40;;;17.60;99.90;;;;;;5033824;28;20025;-73
2023/05/15 07:57:22;;;;;;;48.92;22.10;;;17.60;99.90;;;;;;5031841;28;20044;-72
2023/05/15 07:59:48;;;;;;;13.85;11.75;;;17.70;99.90;;;;;;5032271;28;20041;-72
2023/05/15 08:02:14;;;;;;;20.08;13.80;;;17.70;99.90;;;;;;5033276;28;20033;-67
2023/05/15 08:04:40;;;;;;;12.48;10.68;;;17.70;99.90;;;;;;5033011;28;20034;-74
2023/05/15 08:07:06;;;;;;;12.57;10.60;;;17.80;99.90;;;;;;5032037;28;20044;-67
2023/05/15 08:09:32;;;;;;;13.57;11.95;;;17.60;99.90;;;;;;5013396;28;20496;-69
2023/05/15 08:12:19;;;;;;;12.45;10.90;;;17.80;99.90;;;;;;5027616;28;20033;-72
2023/05/15 08:14:49;;;;;;;13.50;11.07;;;17.70;99.90;;;;;;5023271;28;20044;-71
2023/05/15 08:17:15;;;;;;;13.20;11.85;;;17.60;99.90;;;;;;5027265;28;20041;-72
2023/05/15 08:19:41;;;;;;;14.07;11.40;;;17.60;99.90;;;;;;5032344;28;20033;-71
2023/05/15 08:22:07;;;;;;;11.88;10.68;;;17.50;99.90;;;;;;5029899;28;20024;-71
2023/05/15 08:24:33;;;;;;;11.52;10.52;;;17.50;99.90;;;;;;5015558;28;20034;-71
2023/05/15 08:26:59;;;;;;;19.25;12.45;;;17.50;99.90;;;;;;5030278;28;20041;-71
2023/05/15 08:29:26;;;;;;;15.20;12.27;;;17.60;99.90;;;;;;5011323;28;20036;-72
2023/05/15 08:31:52;;;;;;;12.50;11.20;;;17.70;99.90;;;;;;5015756;28;20037;-70
2023/05/15 08:34:18;;;;;;;11.48;10.30;;;17.80;99.90;;;;;;5029223;28;20028;-71
2023/05/15 08:36:44;;;;;;;12.30;10.80;;;17.80;99.90;;;;;;5032938;28;20474;-71
2023/05/15 08:39:10;;;;;;;12.07;10.93;;;17.80;99.90;;;;;;5024340;28;20077;-72
2023/05/15 08:41:56;;;;;;;12.13;11.13;;;17.90;99.90;;;;;;5031986;28;20478;-71
2023/05/15 08:44:22;;;;;;;12.32;11.23;;;17.80;99.90;;;;;;5014524;28;20048;-71
2023/05/15 08:46:49;;;;;;;13.48;11.40;;;17.80;99.90;;;;;;5015026;28;20760;-71
2023/05/15 08:49:38;;;;;;;11.63;10.52;;;17.70;99.90;;;;;;5024993;28;20052;-71
2023/05/15 08:52:05;;;;;;;12.75;11.30;;;17.90;99.90;;;;;;4987797;28;20030;-70
2023/05/15 08:54:31;;;;;;;11.75;10.65;;;18.20;99.90;;;;;;5014746;28;20490;-71
2023/05/15 08:56:57;;;;;;;10.82;9.38;;;18.30;99.90;;;;;;5014792;28;20021;-70
2023/05/15 08:59:23;;;;;;;10.00;9.07;;;18.50;99.90;;;;;;4995794;28;20593;-73
2023/05/15 09:01:49;;;;;;;10.35;9.35;;;18.70;99.90;;;;;;4997197;28;20025;-73
2023/05/15 09:04:15;;;;;;;9.55;8.75;;;18.60;99.90;;;;;;5032482;28;20093;-71
2023/05/15 09:06:42;;;;;;;10.13;9.13;;;18.60;99.90;;;;;;5002432;28;20122;-74
2023/05/15 09:09:08;;;;;;;9.90;8.90;;;18.60;99.90;;;;;;4992263;28;20393;-74
2023/05/15 09:11:34;;;;;;;11.32;10.13;;;18.60;99.90;;;;;;5030156;28;20026;-74
2023/05/15 09:14:00;;;;;;;10.40;8.85;;;18.50;99.90;;;;;;5011303;28;20410;-73
2023/05/15 09:16:27;;;;;;;9.38;8.57;;;18.40;99.90;;;;;;5028334;28;20045;-74
2023/05/15 09:18:53;;;;;;;9.07;8.18;;;18.50;99.90;;;;;;5027015;28;20037;-74
2023/05/15 09:21:23;;;;;;;8.88;8.07;;;18.70;99.90;;;;;;5013214;28;20026;-74
2023/05/15 09:23:49;;;;;;;9.77;8.77;;;18.50;99.90;;;;;;5032427;28;20400;-74
2023/05/15 09:26:15;;;;;;;9.20;8.30;;;18.60;99.90;;;;;;5014764;28;20041;-74
2023/05/15 09:28:41;;;;;;;8.90;8.10;;;18.70;99.90;;;;;;5028498;28;20036;-74
2023/05/15 09:31:08;;;;;;;9.07;8.23;;;18.60;99.90;;;;;;4996290;28;20037;-74
2023/05/15 09:33:35;;;;;;;8.60;7.78;;;18.70;99.90;;;;;;5014695;28;20038;-74
2023/05/15 09:36:02;;;;;;;9.43;8.10;;;18.90;99.90;;;;;;5032144;28;20041;-74
2023/05/15 09:38:29;;;;;;;9.23;7.85;;;19.00;99.90;;;;;;5014495;28;20018;-74
2023/05/15 09:41:00;;;;;;;8.68;7.88;;;19.10;99.90;;;;;;5014057;28;20357;-74
2023/05/15 09:43:28;;;;;;;8.73;7.90;;;18.90;99.90;;;;;;5032622;28;20036;-74
2023/05/15 09:45:54;;;;;;;8.75;7.50;;;18.90;99.90;;;;;;5013555;28;20050;-74
2023/05/15 09:48:20;;;;;;;9.27;7.93;;;18.70;99.90;;;;;;5014451;28;20843;-74
2023/05/15 09:50:47;;;;;;;9.43;8.63;;;18.60;99.90;;;;;;5027498;28;20034;-74
2023/05/15 09:53:13;;;;;;;8.57;7.20;;;18.60;99.90;;;;;;5024199;28;20033;-74
2023/05/15 09:55:40;;;;;;;8.30;7.60;;;18.70;99.90;;;;;;5013594;28;20032;-74
2023/05/15 09:58:15;;;;;;;9.52;8.77;;;18.60;99.90;;;;;;5031591;28;20030;-74
2023/05/15 10:00:42;;;;;;;8.93;8.02;;;18.60;99.90;;;;;;5031641;28;20041;-74
2023/05/15 10:03:08;;;;;;;9.18;8.48;;;18.80;99.90;;;;;;5014465;28;20029;-75
2023/05/15 10:05:35;;;;;;;9.48;8.57;;;18.90;99.90;;;;;;5014244;28;20041;-74
2023/05/15 10:08:01;;;;;;;8.75;7.95;;;19.00;99.90;;;;;;5028131;28;20378;-74
2023/05/15 10:10:27;;;;;;;8.68;7.93;;;18.90;99.90;;;;;;5025991;28;20037;-74
2023/05/15 10:12:55;;;;;;;8.02;7.43;;;18.90;99.90;;;;;;5013269;28;20101;-74
2023/05/15 10:15:21;;;;;;;8.32;7.45;;;19.00;99.90;;;;;;5030945;28;20030;-74
2023/05/15 10:17:48;;;;;;;7.30;6.70;;;19.10;99.90;;;;;;5014435;28;20036;-74
2023/05/15 10:20:19;;;;;;;8.75;7.82;;;19.20;99.90;;;;;;5013012;28;20045;-75
2023/05/15 10:22:50;;;;;;;7.53;6.90;;;19.30;99.90;;;;;;5029032;28;20414;-74
2023/05/15 10:25:25;;;;;;;8.20;6.43;;;19.30;99.90;;;;;;4997857;28;20402;-74
2023/05/15 10:27:51;;;;;;;7.63;6.93;;;19.20;99.90;;;;;;5010496;28;20041;-74
2023/05/15 10:30:17;;;;;;;7.25;6.65;;;19.00;99.90;;;;;;4998181;28;20025;-74
2023/05/15 10:32:44;;;;;;;7.28;6.57;;;18.80;99.90;;;;;;4996995;28;20038;-74
2023/05/15 10:35:12;;;;;;;7.50;6.80;;;18.80;99.90;;;;;;5001643;28;20038;-74
2023/05/15 10:37:39;;;;;;;7.20;6.60;;;18.80;99.90;;;;;;5031677;28;20390;-74
2023/05/15 10:40:09;;;;;;;7.15;6.45;;;18.90;99.90;;;;;;4997251;28;20370;-75
2023/05/15 10:42:35;;;;;;;8.27;7.57;;;18.90;99.90;;;;;;5010318;28;20049;-74
2023/05/15 10:45:02;;;;;;;8.57;7.80;;;18.80;99.90;;;;;;5026436;28;20386;-74
2023/05/15 10:47:31;;;;;;;8.23;7.50;;;18.80;99.90;;;;;;5021464;28;20054;-74
2023/05/15 10:49:57;;;;;;;8.30;7.50;;;18.80;99.90;;;;;;5009787;28;20482;-74
2023/05/15 10:52:23;;;;;;;8.25;7.65;;;18.80;99.90;;;;;;4991118;28;20030;-74
2023/05/15 10:54:51;;;;;;;6.80;6.20;;;18.80;99.90;;;;;;4994306;28;20044;-74
2023/05/15 10:57:19;;;;;;;7.10;6.40;;;18.90;99.90;;;;;;5011727;28;20021;-74
2023/05/15 10:59:45;;;;;;;6.25;5.75;;;18.90;99.90;;;;;;5013143;28;20033;-74
2023/05/15 11:02:22;;;;;;;8.30;7.70;;;19.00;99.90;;;;;;5005257;28;20029;-74
2023/05/15 11:05:01;;;;;;;6.97;6.47;;;19.00;99.90;;;;;;4997303;28;20053;-74
2023/05/15 11:07:27;;;;;;;5.60;5.20;;;19.00;99.90;;;;;;5028448;28;20382;-74
2023/05/15 11:09:54;;;;;;;6.15;5.75;;;19.00;99.90;;;;;;5030390;28;20042;-74
2023/05/15 11:12:20;;;;;;;6.75;6.15;;;18.90;99.90;;;;;;5020092;28;20030;-74
2023/05/15 11:14:55;;;;;;;7.55;5.90;;;18.80;99.90;;;;;;5030343;28;20041;-74
2023/05/15 11:17:24;;;;;;;8.00;6.25;;;18.80;99.90;;;;;;5030158;28;20064;-74
2023/05/15 11:19:50;;;;;;;6.10;5.70;;;18.90;99.90;;;;;;5013007;28;20034;-74
2023/05/15 11:22:20;;;;;;;5.53;5.13;;;18.80;99.90;;;;;;5026315;28;20026;-74
2023/05/15 11:24:59;;;;;;;5.60;5.20;;;18.80;99.90;;;;;;5029199;28;20028;-74
2023/05/15 11:27:39;;;;;;;6.28;5.80;;;18.80;99.90;;;;;;5011726;28;20036;-74
2023/05/15 11:30:12;;;;;;;6.53;5.93;;;18.90;99.90;;;;;;4993589;28;20048;-75
2023/05/15 11:33:00;;;;;;;6.50;5.93;;;18.90;99.90;;;;;;5008100;28;20025;-74
2023/05/15 11:35:41;;;;;;;6.70;6.10;;;18.80;99.90;;;;;;5021395;28;20361;-74
2023/05/15 11:38:19;;;;;;;6.68;6.18;;;18.60;99.90;;;;;;4978309;28;20367;-74
2023/05/15 11:40:47;;;;;;;6.47;5.97;;;18.60;99.90;;;;;;5027412;28;20034;-74
2023/05/15 11:43:20;;;;;;;7.60;6.90;;;18.70;99.90;;;;;;5030252;28;20033;-74
2023/05/15 11:45:57;;;;;;;6.97;6.38;;;18.80;99.90;;;;;;5006324;28;20050;-73
2023/05/15 11:48:30;;;;;;;6.57;6.18;;;18.80;99.90;;;;;;4992794;28;20049;-74
2023/05/15 11:50:56;;;;;;;6.47;5.88;;;18.80;99.90;;;;;;4977758;28;20057;-74
2023/05/15 11:53:23;;;;;;;7.97;7.28;;;18.90;99.90;;;;;;4987863;28;20466;-74
2023/05/15 11:55:50;;;;;;;6.18;5.70;;;18.90;99.90;;;;;;4959803;28;20045;-74
2023/05/15 11:58:17;;;;;;;6.25;5.75;;;18.70;99.90;;;;;;4992733;28;20027;-74
2023/05/15 12:00:45;;;;;;;5.80;5.35;;;18.60;99.90;;;;;;4990700;28;20034;-75
2023/05/15 12:03:14;;;;;;;7.53;6.82;;;18.50;99.90;;;;;;4990476;28;20034;-75
2023/05/15 12:05:41;;;;;;;6.65;6.13;;;18.60;99.90;;;;;;4987964;28;20597;-75
2023/05/15 12:08:11;;;;;;;6.43;5.82;;;18.60;99.90;;;;;;4981707;28;20030;-75
2023/05/15 12:10:43;;;;;;;6.57;5.40;;;18.70;99.90;;;;;;4977011;28;20026;-75
2023/05/15 12:13:12;;;;;;;5.68;5.28;;;18.70;99.90;;;;;;4992370;28;20046;-75
2023/05/15 12:15:40;;;;;;;7.32;6.63;;;18.60;99.90;;;;;;4988937;28;20046;-75
2023/05/15 12:18:07;;;;;;;5.85;5.35;;;18.70;99.90;;;;;;4992225;28;20022;-75
2023/05/15 12:20:34;;;;;;;6.03;5.63;;;18.70;99.90;;;;;;4990303;28;20038;-75
2023/05/15 12:23:05;;;;;;;8.10;6.18;;;18.80;99.90;;;;;;4992378;28;20030;-74
2023/05/15 12:25:32;;;;;;;6.68;6.13;;;18.80;99.90;;;;;;4980741;28;20051;-75
2023/05/15 12:27:59;;;;;;;5.57;5.07;;;19.00;99.90;;;;;;4992752;28;20042;-75
2023/05/15 12:30:26;;;;;;;5.82;5.43;;;19.10;99.90;;;;;;4990685;28;20746;-75
2023/05/15 12:32:52;;;;;;;6.13;5.53;;;18.90;99.90;;;;;;4992698;28;20026;-75
2023/05/15 12:35:18;;;;;;;5.10;4.60;;;18.90;99.90;;;;;;4973264;28;20038;-75